SAA214R FACT-FHSH
Flight info
| Callsign | SAA214R |
|---|---|
| Flight time | 4h 30m |
| Altitude | 37000 |
| Route | IMSOM1B IMSOM UQ34 UVIKU UN188 ABV/N0465F360 UQ11 OKTEL/N0460F380 DCT 25S010E 19S000E DCT APRAS |
| Aircraft | A320/M-SDE3FGHIRWY/LB1 |
Departure
| Time | 2026-03-23 11:55 |
|---|---|
| Airport | Cape Town International Airport (FACT) |
Arrival
| Time | 2026-03-23 16:25 |
|---|---|
| Airport | Saint Helena International Airport (FHSH) |
| Time | Latitude | Longitude | Altitude | Speed | Heading |
|---|---|---|---|---|---|
| 2026-03-23 11:32 | -33.96988 | 18.59836 | 167 ft | 0 kts | 255° |
| 2026-03-23 11:46 | -33.96987 | 18.59837 | 167 ft | 1 kts | 255° |
| 2026-03-23 11:46 | -33.96983 | 18.59856 | 167 ft | 3 kts | 258° |
| 2026-03-23 11:46 | -33.96980 | 18.59880 | 167 ft | 3 kts | 265° |
| 2026-03-23 11:46 | -33.96979 | 18.59904 | 167 ft | 3 kts | 279° |
| 2026-03-23 11:47 | -33.96985 | 18.59925 | 167 ft | 3 kts | 315° |
| 2026-03-23 11:47 | -33.96993 | 18.59933 | 167 ft | 0 kts | 344° |
| 2026-03-23 11:51 | -33.96969 | 18.59925 | 167 ft | 8 kts | 344° |
| 2026-03-23 11:51 | -33.96878 | 18.59894 | 167 ft | 18 kts | 345° |
| 2026-03-23 11:51 | -33.96735 | 18.59847 | 167 ft | 25 kts | 345° |
| 2026-03-23 11:52 | -33.96555 | 18.59793 | 167 ft | 28 kts | 347° |
| 2026-03-23 11:52 | -33.96359 | 18.59746 | 168 ft | 21 kts | 349° |
| 2026-03-23 11:52 | -33.96242 | 18.59725 | 168 ft | 14 kts | 7° |
| 2026-03-23 11:52 | -33.96151 | 18.59812 | 168 ft | 19 kts | 45° |
| 2026-03-23 11:53 | -33.96135 | 18.59832 | 168 ft | 0 kts | 45° |
| 2026-03-23 11:53 | -33.96134 | 18.59833 | 168 ft | 2 kts | 45° |
| 2026-03-23 11:53 | -33.96101 | 18.59874 | 168 ft | 13 kts | 46° |
| 2026-03-23 11:53 | -33.96055 | 18.60009 | 165 ft | 26 kts | 124° |
| 2026-03-23 11:54 | -33.96131 | 18.60046 | 166 ft | 1 kts | 165° |
| 2026-03-23 11:54 | -33.96160 | 18.60055 | 166 ft | 18 kts | 165° |
| 2026-03-23 11:54 | -33.96514 | 18.60155 | 171 ft | 82 kts | 165° |
| 2026-03-23 11:54 | -33.97239 | 18.60397 | 158 ft | 133 kts | 164° |
| 2026-03-23 11:55 | -33.98235 | 18.60706 | 426 ft | 149 kts | 168° |
| 2026-03-23 11:55 | -33.99234 | 18.61038 | 1070 ft | 149 kts | 162° |
| 2026-03-23 11:55 | -34.00247 | 18.61364 | 1655 ft | 152 kts | 162° |
| 2026-03-23 11:55 | -34.01276 | 18.61675 | 2211 ft | 154 kts | 161° |
| 2026-03-23 11:56 | -34.02410 | 18.61990 | 2429 ft | 179 kts | 161° |
| 2026-03-23 11:56 | -34.03707 | 18.62370 | 2670 ft | 204 kts | 157° |
| 2026-03-23 11:56 | -34.05131 | 18.62931 | 3011 ft | 227 kts | 158° |
| 2026-03-23 11:56 | -34.06786 | 18.63260 | 3380 ft | 259 kts | 179° |
| 2026-03-23 11:57 | -34.08593 | 18.62689 | 3983 ft | 279 kts | 205° |
| 2026-03-23 11:57 | -34.10256 | 18.61430 | 4839 ft | 282 kts | 213° |
| 2026-03-23 11:57 | -34.11910 | 18.60146 | 5675 ft | 284 kts | 208° |
| 2026-03-23 11:57 | -34.13758 | 18.59279 | 6468 ft | 287 kts | 196° |
| 2026-03-23 11:58 | -34.15589 | 18.58321 | 7183 ft | 290 kts | 219° |
| 2026-03-23 11:58 | -34.16790 | 18.56406 | 7895 ft | 289 kts | 251° |
| 2026-03-23 11:58 | -34.17124 | 18.54031 | 8645 ft | 289 kts | 274° |
| 2026-03-23 11:58 | -34.16787 | 18.51638 | 9410 ft | 290 kts | 284° |
| 2026-03-23 11:59 | -34.16381 | 18.49248 | 10167 ft | 293 kts | 283° |
| 2026-03-23 11:59 | -34.15972 | 18.46763 | 10483 ft | 312 kts | 283° |
| 2026-03-23 11:59 | -34.15538 | 18.44095 | 10630 ft | 335 kts | 282° |
| 2026-03-23 11:59 | -34.15075 | 18.41238 | 10782 ft | 358 kts | 283° |
| 2026-03-23 12:00 | -34.14581 | 18.38198 | 10895 ft | 380 kts | 282° |
| 2026-03-23 12:00 | -34.14059 | 18.34991 | 11062 ft | 398 kts | 282° |
| 2026-03-23 12:00 | -34.13518 | 18.31673 | 11561 ft | 406 kts | 283° |
| 2026-03-23 12:00 | -34.12966 | 18.28307 | 12173 ft | 411 kts | 282° |
| 2026-03-23 12:01 | -34.12407 | 18.24904 | 12805 ft | 415 kts | 282° |
| 2026-03-23 12:01 | -34.11843 | 18.21468 | 13444 ft | 419 kts | 283° |
| 2026-03-23 12:01 | -34.11016 | 18.18098 | 14110 ft | 420 kts | 294° |
| 2026-03-23 12:01 | -34.09682 | 18.14979 | 14738 ft | 419 kts | 304° |
| 2026-03-23 12:02 | -34.07889 | 18.12209 | 15309 ft | 421 kts | 314° |
| 2026-03-23 12:02 | -34.05680 | 18.09880 | 15859 ft | 423 kts | 325° |
| 2026-03-23 12:02 | -34.03184 | 18.07986 | 16385 ft | 426 kts | 329° |
| 2026-03-23 12:02 | -34.00639 | 18.06130 | 16964 ft | 428 kts | 329° |
| 2026-03-23 12:03 | -33.98084 | 18.04267 | 17511 ft | 430 kts | 329° |
| 2026-03-23 12:03 | -33.95518 | 18.02398 | 18043 ft | 433 kts | 329° |
| 2026-03-23 12:03 | -33.92965 | 18.00446 | 18496 ft | 438 kts | 324° |
| 2026-03-23 12:03 | -33.90535 | 17.98214 | 18919 ft | 440 kts | 322° |
| 2026-03-23 12:04 | -33.88108 | 17.95968 | 19449 ft | 441 kts | 322° |
| 2026-03-23 12:04 | -33.85669 | 17.93713 | 19957 ft | 443 kts | 322° |
| 2026-03-23 12:04 | -33.83220 | 17.91451 | 20415 ft | 446 kts | 322° |
| 2026-03-23 12:04 | -33.80750 | 17.89176 | 20867 ft | 448 kts | 321° |
| 2026-03-23 12:05 | -33.78264 | 17.86892 | 21306 ft | 451 kts | 321° |
| 2026-03-23 12:05 | -33.75761 | 17.84599 | 21753 ft | 453 kts | 321° |
| 2026-03-23 12:05 | -33.73259 | 17.82312 | 22369 ft | 451 kts | 321° |
| 2026-03-23 12:05 | -33.70805 | 17.80070 | 22982 ft | 448 kts | 321° |
| 2026-03-23 12:06 | -33.68327 | 17.77806 | 23600 ft | 446 kts | 321° |
| 2026-03-23 12:06 | -33.65863 | 17.75554 | 24142 ft | 444 kts | 320° |
| 2026-03-23 12:06 | -33.63414 | 17.73317 | 24704 ft | 441 kts | 320° |
| 2026-03-23 12:06 | -33.60981 | 17.71091 | 25282 ft | 438 kts | 320° |
| 2026-03-23 12:07 | -33.58562 | 17.68879 | 25856 ft | 436 kts | 320° |
| 2026-03-23 12:07 | -33.56159 | 17.66682 | 26443 ft | 433 kts | 320° |
| 2026-03-23 12:07 | -33.53769 | 17.64499 | 27030 ft | 431 kts | 320° |
| 2026-03-23 12:07 | -33.51392 | 17.62333 | 27624 ft | 428 kts | 320° |
| 2026-03-23 12:08 | -33.49025 | 17.60185 | 28240 ft | 426 kts | 320° |
| 2026-03-23 12:08 | -33.46511 | 17.58305 | 28836 ft | 428 kts | 330° |
| 2026-03-23 12:08 | -33.43741 | 17.56982 | 29381 ft | 431 kts | 339° |
| 2026-03-23 12:08 | -33.40804 | 17.56215 | 29957 ft | 433 kts | 345° |
| 2026-03-23 12:09 | -33.37842 | 17.55560 | 30463 ft | 431 kts | 345° |
| 2026-03-23 12:09 | -33.34898 | 17.54910 | 30957 ft | 429 kts | 344° |
| 2026-03-23 12:09 | -33.31970 | 17.54262 | 31454 ft | 427 kts | 344° |
| 2026-03-23 12:09 | -33.29060 | 17.53615 | 31943 ft | 425 kts | 344° |
| 2026-03-23 12:10 | -33.26164 | 17.52969 | 32416 ft | 422 kts | 343° |
| 2026-03-23 12:10 | -33.23280 | 17.52323 | 32908 ft | 420 kts | 343° |
| 2026-03-23 12:10 | -33.20416 | 17.51677 | 33368 ft | 418 kts | 343° |
| 2026-03-23 12:10 | -33.17561 | 17.51032 | 33838 ft | 417 kts | 343° |
| 2026-03-23 12:11 | -33.14720 | 17.50394 | 34272 ft | 415 kts | 343° |
| 2026-03-23 12:11 | -33.11890 | 17.49766 | 34708 ft | 412 kts | 343° |
| 2026-03-23 12:11 | -33.09080 | 17.49144 | 35151 ft | 409 kts | 342° |
| 2026-03-23 12:11 | -33.06285 | 17.48530 | 35582 ft | 407 kts | 342° |
| 2026-03-23 12:12 | -33.03515 | 17.47921 | 36002 ft | 404 kts | 342° |
| 2026-03-23 12:12 | -33.00761 | 17.47314 | 36404 ft | 401 kts | 342° |
| 2026-03-23 12:12 | -32.98025 | 17.46707 | 36791 ft | 399 kts | 341° |
| 2026-03-23 12:12 | -32.95302 | 17.46098 | 36932 ft | 397 kts | 341° |
| 2026-03-23 12:13 | -32.89820 | 17.44868 | 36983 ft | 404 kts | 341° |
| 2026-03-23 12:13 | -32.84277 | 17.43637 | 36980 ft | 406 kts | 341° |
| 2026-03-23 12:14 | -32.78720 | 17.42409 | 36977 ft | 406 kts | 341° |
| 2026-03-23 12:14 | -32.73161 | 17.41187 | 36975 ft | 406 kts | 341° |
| 2026-03-23 12:15 | -32.67603 | 17.39962 | 36979 ft | 406 kts | 341° |
| 2026-03-23 12:15 | -32.62037 | 17.38733 | 36987 ft | 407 kts | 341° |
| 2026-03-23 12:16 | -32.56466 | 17.37506 | 36985 ft | 407 kts | 341° |
| 2026-03-23 12:16 | -32.50893 | 17.36280 | 36985 ft | 408 kts | 341° |
| 2026-03-23 12:17 | -32.45306 | 17.35057 | 36959 ft | 408 kts | 342° |
| 2026-03-23 12:17 | -32.40663 | 17.34045 | 36965 ft | 408 kts | 342° |
| 2026-03-23 12:18 | -32.35077 | 17.32826 | 36973 ft | 408 kts | 341° |
| 2026-03-23 12:18 | -32.28589 | 17.31401 | 36984 ft | 408 kts | 341° |
| 2026-03-23 12:19 | -32.23912 | 17.30379 | 36980 ft | 408 kts | 342° |
| 2026-03-23 12:19 | -32.18333 | 17.29165 | 36956 ft | 408 kts | 341° |
| 2026-03-23 12:20 | -32.12754 | 17.27950 | 36969 ft | 408 kts | 341° |
| 2026-03-23 12:20 | -32.07213 | 17.26741 | 36970 ft | 408 kts | 341° |
| 2026-03-23 12:21 | -32.01632 | 17.25528 | 36980 ft | 408 kts | 341° |
| 2026-03-23 12:21 | -31.96048 | 17.24317 | 36952 ft | 408 kts | 341° |
| 2026-03-23 12:22 | -31.90470 | 17.23108 | 36966 ft | 407 kts | 341° |
| 2026-03-23 12:22 | -31.84898 | 17.21906 | 36973 ft | 407 kts | 341° |
| 2026-03-23 12:23 | -31.79337 | 17.20702 | 36971 ft | 406 kts | 341° |
| 2026-03-23 12:23 | -31.73781 | 17.19492 | 36968 ft | 406 kts | 341° |
| 2026-03-23 12:24 | -31.68222 | 17.18298 | 36946 ft | 406 kts | 341° |
| 2026-03-23 12:25 | -31.59903 | 17.16513 | 36971 ft | 405 kts | 341° |
| 2026-03-23 12:25 | -31.54367 | 17.15320 | 36972 ft | 404 kts | 341° |
| 2026-03-23 12:26 | -31.48836 | 17.14127 | 36973 ft | 404 kts | 341° |
| 2026-03-23 12:26 | -31.43310 | 17.12934 | 36954 ft | 404 kts | 341° |
| 2026-03-23 12:27 | -31.35033 | 17.11171 | 36963 ft | 403 kts | 341° |
| 2026-03-23 12:27 | -31.29524 | 17.09995 | 36964 ft | 402 kts | 341° |
| 2026-03-23 12:28 | -31.24014 | 17.08819 | 36962 ft | 402 kts | 341° |
| 2026-03-23 12:28 | -31.18504 | 17.07647 | 36921 ft | 403 kts | 341° |
| 2026-03-23 12:29 | -31.12995 | 17.06472 | 36937 ft | 402 kts | 341° |
| 2026-03-23 12:29 | -31.07491 | 17.05297 | 36947 ft | 402 kts | 341° |
| 2026-03-23 12:30 | -31.01988 | 17.04122 | 36973 ft | 402 kts | 341° |
| 2026-03-23 12:30 | -30.96480 | 17.02957 | 36968 ft | 402 kts | 341° |
| 2026-03-23 12:31 | -30.91010 | 17.01797 | 36926 ft | 402 kts | 341° |
| 2026-03-23 12:31 | -30.85467 | 17.00619 | 36935 ft | 402 kts | 341° |
| 2026-03-23 12:32 | -30.79990 | 16.99466 | 36940 ft | 403 kts | 341° |
| 2026-03-23 12:32 | -30.74477 | 16.98306 | 36946 ft | 403 kts | 341° |
| 2026-03-23 12:33 | -30.68966 | 16.97135 | 36948 ft | 402 kts | 341° |
| 2026-03-23 12:33 | -30.63455 | 16.95970 | 36924 ft | 403 kts | 341° |
| 2026-03-23 12:34 | -30.57937 | 16.94810 | 36930 ft | 403 kts | 341° |
| 2026-03-23 12:34 | -30.52419 | 16.93653 | 36938 ft | 403 kts | 341° |
| 2026-03-23 12:35 | -30.46897 | 16.92489 | 36947 ft | 403 kts | 341° |
| 2026-03-23 12:35 | -30.41374 | 16.91323 | 36946 ft | 403 kts | 341° |
| 2026-03-23 12:36 | -30.35847 | 16.90158 | 36919 ft | 404 kts | 341° |
| 2026-03-23 12:36 | -30.30304 | 16.89007 | 36929 ft | 405 kts | 341° |
| 2026-03-23 12:37 | -30.24758 | 16.87853 | 36930 ft | 405 kts | 341° |
| 2026-03-23 12:37 | -30.19209 | 16.86696 | 36934 ft | 405 kts | 341° |
| 2026-03-23 12:38 | -30.13659 | 16.85532 | 36941 ft | 406 kts | 341° |
| 2026-03-23 12:38 | -30.08104 | 16.84375 | 36945 ft | 406 kts | 341° |
| 2026-03-23 12:39 | -30.02547 | 16.83218 | 36944 ft | 406 kts | 341° |
| 2026-03-23 12:39 | -29.96989 | 16.82066 | 36944 ft | 406 kts | 341° |
| 2026-03-23 12:40 | -29.91433 | 16.80910 | 36947 ft | 406 kts | 341° |
| 2026-03-23 12:40 | -29.85874 | 16.79760 | 36919 ft | 406 kts | 341° |
| 2026-03-23 12:41 | -29.80305 | 16.78605 | 36922 ft | 407 kts | 341° |
| 2026-03-23 12:41 | -29.74768 | 16.77456 | 36925 ft | 408 kts | 341° |
| 2026-03-23 12:42 | -29.69180 | 16.76302 | 36932 ft | 408 kts | 341° |
| 2026-03-23 12:42 | -29.63587 | 16.75147 | 36933 ft | 408 kts | 341° |
| 2026-03-23 12:43 | -29.57994 | 16.73992 | 36907 ft | 409 kts | 342° |
| 2026-03-23 12:43 | -29.52389 | 16.72835 | 36913 ft | 410 kts | 342° |
| 2026-03-23 12:44 | -29.46771 | 16.71683 | 36915 ft | 410 kts | 342° |
| 2026-03-23 12:44 | -29.41151 | 16.70522 | 36920 ft | 411 kts | 342° |
| 2026-03-23 12:45 | -29.35522 | 16.69365 | 36947 ft | 411 kts | 342° |
| 2026-03-23 12:45 | -29.29891 | 16.68216 | 36916 ft | 411 kts | 342° |
| 2026-03-23 12:46 | -29.24251 | 16.67053 | 36914 ft | 412 kts | 342° |
| 2026-03-23 12:46 | -29.18603 | 16.65896 | 36926 ft | 413 kts | 342° |
| 2026-03-23 12:47 | -29.12948 | 16.64742 | 36932 ft | 413 kts | 342° |
| 2026-03-23 12:47 | -29.07290 | 16.63588 | 36935 ft | 413 kts | 342° |
| 2026-03-23 12:48 | -29.01625 | 16.62435 | 36913 ft | 414 kts | 342° |
| 2026-03-23 12:48 | -28.95947 | 16.61277 | 36917 ft | 415 kts | 342° |
| 2026-03-23 12:49 | -28.90258 | 16.60121 | 36929 ft | 415 kts | 342° |
| 2026-03-23 12:49 | -28.84564 | 16.58960 | 36935 ft | 416 kts | 342° |
| 2026-03-23 12:50 | -28.78866 | 16.57796 | 36901 ft | 416 kts | 342° |
| 2026-03-23 12:50 | -28.73159 | 16.56641 | 36904 ft | 417 kts | 342° |
| 2026-03-23 12:51 | -28.67438 | 16.55479 | 36915 ft | 418 kts | 342° |
| 2026-03-23 12:51 | -28.61794 | 16.54071 | 36918 ft | 408 kts | 331° |
| 2026-03-23 12:52 | -28.59329 | 16.52571 | 36921 ft | 398 kts | 319° |
| 2026-03-23 12:52 | -28.57290 | 16.50499 | 36920 ft | 391 kts | 307° |
| 2026-03-23 12:52 | -28.55754 | 16.47976 | 36917 ft | 387 kts | 296° |
| 2026-03-23 12:52 | -28.54760 | 16.45136 | 36915 ft | 387 kts | 288° |
| 2026-03-23 12:53 | -28.53139 | 16.39288 | 36912 ft | 388 kts | 288° |
| 2026-03-23 12:53 | -28.51489 | 16.33423 | 36919 ft | 390 kts | 288° |
| 2026-03-23 12:54 | -28.49828 | 16.27537 | 36925 ft | 391 kts | 288° |
| 2026-03-23 12:54 | -28.48159 | 16.21646 | 36928 ft | 392 kts | 288° |
| 2026-03-23 12:55 | -28.46487 | 16.15754 | 36935 ft | 392 kts | 288° |
| 2026-03-23 12:55 | -28.44829 | 16.09901 | 36939 ft | 392 kts | 288° |
| 2026-03-23 12:56 | -28.43158 | 16.04006 | 36942 ft | 392 kts | 288° |
| 2026-03-23 12:56 | -28.41486 | 15.98113 | 36950 ft | 392 kts | 288° |
| 2026-03-23 12:57 | -28.39813 | 15.92217 | 36954 ft | 392 kts | 289° |
| 2026-03-23 12:57 | -28.38132 | 15.86326 | 36953 ft | 392 kts | 289° |
| 2026-03-23 12:58 | -28.36445 | 15.80431 | 36955 ft | 393 kts | 289° |
| 2026-03-23 12:58 | -28.34761 | 15.74532 | 36956 ft | 393 kts | 289° |
| 2026-03-23 12:59 | -28.33077 | 15.68633 | 36932 ft | 393 kts | 289° |
| 2026-03-23 12:59 | -28.31379 | 15.62733 | 36941 ft | 394 kts | 289° |
| 2026-03-23 13:00 | -28.29672 | 15.56819 | 36943 ft | 395 kts | 289° |
| 2026-03-23 13:01 | -28.27106 | 15.47932 | 36952 ft | 395 kts | 289° |
| 2026-03-23 13:01 | -28.25394 | 15.42003 | 36952 ft | 395 kts | 289° |
| 2026-03-23 13:02 | -28.23676 | 15.36080 | 36949 ft | 395 kts | 289° |
| 2026-03-23 13:02 | -28.21962 | 15.30153 | 36952 ft | 396 kts | 289° |
| 2026-03-23 13:03 | -28.20243 | 15.24230 | 36957 ft | 396 kts | 289° |
| 2026-03-23 13:03 | -28.18519 | 15.18307 | 36962 ft | 396 kts | 289° |
| 2026-03-23 13:04 | -28.16789 | 15.12381 | 36962 ft | 396 kts | 289° |
| 2026-03-23 13:04 | -28.15050 | 15.06459 | 36962 ft | 396 kts | 289° |
| 2026-03-23 13:05 | -28.13236 | 15.00569 | 36958 ft | 396 kts | 295° |
| 2026-03-23 13:05 | -28.10871 | 14.96143 | 36940 ft | 396 kts | 303° |
| 2026-03-23 13:06 | -28.07795 | 14.90959 | 36938 ft | 397 kts | 303° |
| 2026-03-23 13:06 | -28.04718 | 14.85761 | 36940 ft | 397 kts | 303° |
| 2026-03-23 13:07 | -28.01631 | 14.80565 | 36943 ft | 398 kts | 303° |
| 2026-03-23 13:07 | -27.98537 | 14.75372 | 36948 ft | 398 kts | 303° |
| 2026-03-23 13:08 | -27.95445 | 14.70175 | 36944 ft | 398 kts | 303° |
| 2026-03-23 13:08 | -27.92346 | 14.64977 | 36951 ft | 399 kts | 303° |
| 2026-03-23 13:09 | -27.89246 | 14.59778 | 36954 ft | 399 kts | 303° |
| 2026-03-23 13:09 | -27.86145 | 14.54582 | 36930 ft | 399 kts | 303° |
| 2026-03-23 13:10 | -27.83029 | 14.49379 | 36933 ft | 400 kts | 303° |
| 2026-03-23 13:10 | -27.79910 | 14.44176 | 36936 ft | 400 kts | 303° |
| 2026-03-23 13:11 | -27.76784 | 14.38971 | 36934 ft | 401 kts | 303° |
| 2026-03-23 13:11 | -27.73655 | 14.33766 | 36938 ft | 401 kts | 303° |
| 2026-03-23 13:12 | -27.70523 | 14.28557 | 36941 ft | 401 kts | 303° |
| 2026-03-23 13:12 | -27.67395 | 14.23343 | 36941 ft | 402 kts | 303° |
| 2026-03-23 13:13 | -27.64269 | 14.18164 | 36959 ft | 402 kts | 303° |
| 2026-03-23 13:13 | -27.61119 | 14.12953 | 36960 ft | 402 kts | 303° |
| 2026-03-23 13:14 | -27.57972 | 14.07745 | 36956 ft | 402 kts | 303° |
| 2026-03-23 13:14 | -27.54821 | 14.02530 | 36964 ft | 402 kts | 303° |
| 2026-03-23 13:15 | -27.51665 | 13.97327 | 36963 ft | 402 kts | 303° |
| 2026-03-23 13:15 | -27.48513 | 13.92122 | 36971 ft | 402 kts | 303° |
| 2026-03-23 13:16 | -27.45352 | 13.86920 | 36970 ft | 402 kts | 303° |
| 2026-03-23 13:16 | -27.42191 | 13.81719 | 36977 ft | 402 kts | 303° |
| 2026-03-23 13:17 | -27.39034 | 13.76523 | 36972 ft | 402 kts | 303° |
| 2026-03-23 13:17 | -27.35874 | 13.71320 | 36951 ft | 403 kts | 303° |
| 2026-03-23 13:18 | -27.32698 | 13.66121 | 36951 ft | 404 kts | 303° |
| 2026-03-23 13:18 | -27.29517 | 13.60913 | 36959 ft | 404 kts | 303° |
| 2026-03-23 13:19 | -27.26332 | 13.55702 | 36959 ft | 404 kts | 303° |
| 2026-03-23 13:19 | -27.23144 | 13.50492 | 36959 ft | 405 kts | 303° |
| 2026-03-23 13:20 | -27.19952 | 13.45284 | 36976 ft | 405 kts | 304° |
| 2026-03-23 13:20 | -27.16759 | 13.40079 | 36972 ft | 405 kts | 304° |
| 2026-03-23 13:21 | -27.13564 | 13.34873 | 36976 ft | 405 kts | 304° |
| 2026-03-23 13:21 | -27.10358 | 13.29663 | 36950 ft | 406 kts | 304° |
| 2026-03-23 13:22 | -27.07143 | 13.24445 | 36950 ft | 407 kts | 304° |
| 2026-03-23 13:22 | -27.03926 | 13.19228 | 36957 ft | 407 kts | 304° |
| 2026-03-23 13:23 | -27.00703 | 13.14004 | 36960 ft | 407 kts | 304° |
| 2026-03-23 13:23 | -26.97476 | 13.08784 | 36971 ft | 407 kts | 304° |
| 2026-03-23 13:24 | -26.94242 | 13.03564 | 36978 ft | 408 kts | 304° |
| 2026-03-23 13:24 | -26.91008 | 12.98345 | 36977 ft | 408 kts | 304° |
| 2026-03-23 13:25 | -26.87777 | 12.93117 | 36978 ft | 408 kts | 304° |
| 2026-03-23 13:25 | -26.84539 | 12.87885 | 36965 ft | 409 kts | 304° |
| 2026-03-23 13:26 | -26.81286 | 12.82646 | 36969 ft | 410 kts | 304° |
| 2026-03-23 13:26 | -26.78020 | 12.77410 | 36975 ft | 410 kts | 304° |
| 2026-03-23 13:27 | -26.74771 | 12.72209 | 36984 ft | 410 kts | 304° |
| 2026-03-23 13:27 | -26.71507 | 12.66972 | 36982 ft | 410 kts | 304° |
| 2026-03-23 13:28 | -26.68241 | 12.61737 | 36983 ft | 410 kts | 304° |
| 2026-03-23 13:28 | -26.64971 | 12.56507 | 36980 ft | 411 kts | 304° |
| 2026-03-23 13:29 | -26.61697 | 12.51273 | 36965 ft | 411 kts | 304° |
| 2026-03-23 13:29 | -26.58426 | 12.46038 | 36966 ft | 411 kts | 304° |
| 2026-03-23 13:30 | -26.55135 | 12.40807 | 36965 ft | 412 kts | 304° |
| 2026-03-23 13:30 | -26.51844 | 12.35571 | 36978 ft | 412 kts | 304° |
| 2026-03-23 13:31 | -26.48551 | 12.30330 | 36987 ft | 412 kts | 304° |
| 2026-03-23 13:31 | -26.45255 | 12.25096 | 36988 ft | 412 kts | 304° |
| 2026-03-23 13:32 | -26.41956 | 12.19857 | 36988 ft | 412 kts | 304° |
| 2026-03-23 13:32 | -26.38653 | 12.14627 | 36989 ft | 412 kts | 304° |
| 2026-03-23 13:33 | -26.35349 | 12.09403 | 36969 ft | 412 kts | 304° |
| 2026-03-23 13:33 | -26.32038 | 12.04171 | 36979 ft | 413 kts | 304° |
| 2026-03-23 13:34 | -26.28726 | 11.98929 | 36982 ft | 414 kts | 304° |
| 2026-03-23 13:34 | -26.25412 | 11.93688 | 36986 ft | 414 kts | 304° |
| 2026-03-23 13:35 | -26.22090 | 11.88457 | 36988 ft | 413 kts | 304° |
| 2026-03-23 13:35 | -26.18768 | 11.83228 | 36986 ft | 413 kts | 304° |
| 2026-03-23 13:36 | -26.15450 | 11.78001 | 36986 ft | 413 kts | 304° |
| 2026-03-23 13:36 | -26.12127 | 11.72776 | 36988 ft | 414 kts | 304° |
| 2026-03-23 13:37 | -26.08796 | 11.67560 | 36980 ft | 414 kts | 304° |
| 2026-03-23 13:37 | -26.05466 | 11.62334 | 36977 ft | 414 kts | 304° |
| 2026-03-23 13:38 | -26.02131 | 11.57107 | 36978 ft | 415 kts | 305° |
| 2026-03-23 13:38 | -25.98786 | 11.51880 | 36981 ft | 415 kts | 304° |
| 2026-03-23 13:39 | -25.95457 | 11.46683 | 36984 ft | 415 kts | 305° |
| 2026-03-23 13:39 | -25.92083 | 11.41422 | 36988 ft | 416 kts | 305° |
| 2026-03-23 13:40 | -25.88751 | 11.36226 | 36990 ft | 416 kts | 305° |
| 2026-03-23 13:40 | -25.85392 | 11.31004 | 36988 ft | 416 kts | 305° |
| 2026-03-23 13:41 | -25.82035 | 11.25787 | 37006 ft | 415 kts | 304° |
| 2026-03-23 13:41 | -25.78675 | 11.20577 | 36971 ft | 415 kts | 305° |
| 2026-03-23 13:42 | -25.75313 | 11.15366 | 36971 ft | 416 kts | 305° |
| 2026-03-23 13:42 | -25.71954 | 11.10142 | 36976 ft | 416 kts | 305° |
| 2026-03-23 13:43 | -25.68583 | 11.04926 | 36973 ft | 416 kts | 305° |
| 2026-03-23 13:43 | -25.65201 | 10.99715 | 36979 ft | 416 kts | 305° |
| 2026-03-23 13:44 | -25.61824 | 10.94499 | 36981 ft | 417 kts | 305° |
| 2026-03-23 13:44 | -25.58448 | 10.89277 | 36983 ft | 417 kts | 305° |
| 2026-03-23 13:45 | -25.55062 | 10.84062 | 36988 ft | 417 kts | 305° |
| 2026-03-23 13:45 | -25.51673 | 10.78844 | 36967 ft | 418 kts | 305° |
| 2026-03-23 13:46 | -25.48273 | 10.73621 | 36969 ft | 419 kts | 305° |
| 2026-03-23 13:46 | -25.44864 | 10.68385 | 36983 ft | 419 kts | 305° |
| 2026-03-23 13:47 | -25.41471 | 10.63183 | 36996 ft | 420 kts | 305° |
| 2026-03-23 13:47 | -25.38033 | 10.57909 | 36985 ft | 420 kts | 305° |
| 2026-03-23 13:48 | -25.34636 | 10.52707 | 36998 ft | 420 kts | 305° |
| 2026-03-23 13:48 | -25.31214 | 10.47484 | 36993 ft | 419 kts | 305° |
| 2026-03-23 13:49 | -25.27797 | 10.42263 | 36996 ft | 419 kts | 305° |
| 2026-03-23 13:49 | -25.24380 | 10.37041 | 36971 ft | 420 kts | 305° |
| 2026-03-23 13:50 | -25.20954 | 10.31812 | 36972 ft | 421 kts | 305° |
| 2026-03-23 13:50 | -25.17515 | 10.26579 | 36979 ft | 421 kts | 305° |
| 2026-03-23 13:51 | -25.12342 | 10.18731 | 37010 ft | 421 kts | 305° |
| 2026-03-23 13:51 | -25.08898 | 10.13499 | 37001 ft | 421 kts | 305° |
| 2026-03-23 13:52 | -25.05455 | 10.08270 | 36998 ft | 421 kts | 305° |
| 2026-03-23 13:52 | -25.02007 | 10.03049 | 36992 ft | 421 kts | 306° |
| 2026-03-23 13:53 | -24.98738 | 9.97702 | 36999 ft | 420 kts | 301° |
| 2026-03-23 13:53 | -24.96243 | 9.93107 | 36999 ft | 420 kts | 301° |
| 2026-03-23 13:54 | -24.93243 | 9.87581 | 36991 ft | 420 kts | 301° |
| 2026-03-23 13:54 | -24.90233 | 9.82061 | 37003 ft | 420 kts | 301° |
| 2026-03-23 13:55 | -24.87222 | 9.76551 | 37001 ft | 420 kts | 301° |
| 2026-03-23 13:55 | -24.84215 | 9.71042 | 36998 ft | 419 kts | 301° |
| 2026-03-23 13:56 | -24.81198 | 9.65550 | 37000 ft | 419 kts | 301° |
| 2026-03-23 13:56 | -24.78186 | 9.60060 | 36998 ft | 419 kts | 301° |
| 2026-03-23 13:57 | -24.75180 | 9.54567 | 36994 ft | 419 kts | 301° |
| 2026-03-23 13:57 | -24.72172 | 9.49078 | 36989 ft | 419 kts | 301° |
| 2026-03-23 13:58 | -24.69150 | 9.43585 | 36983 ft | 420 kts | 301° |
| 2026-03-23 13:58 | -24.66122 | 9.38089 | 36986 ft | 420 kts | 301° |
| 2026-03-23 13:59 | -24.63091 | 9.32586 | 36987 ft | 421 kts | 301° |
| 2026-03-23 13:59 | -24.60056 | 9.27088 | 36987 ft | 421 kts | 301° |
| 2026-03-23 14:00 | -24.57024 | 9.21584 | 36991 ft | 421 kts | 301° |
| 2026-03-23 14:00 | -24.53986 | 9.16086 | 36996 ft | 421 kts | 301° |
| 2026-03-23 14:01 | -24.50941 | 9.10589 | 36997 ft | 421 kts | 301° |
| 2026-03-23 14:01 | -24.47910 | 9.05134 | 37007 ft | 421 kts | 301° |
| 2026-03-23 14:02 | -24.44861 | 8.99641 | 37004 ft | 421 kts | 301° |
| 2026-03-23 14:02 | -24.41811 | 8.94146 | 36989 ft | 422 kts | 301° |
| 2026-03-23 14:03 | -24.38758 | 8.88649 | 36992 ft | 422 kts | 301° |
| 2026-03-23 14:03 | -24.35697 | 8.83149 | 36993 ft | 422 kts | 301° |
| 2026-03-23 14:04 | -24.32639 | 8.77650 | 36995 ft | 422 kts | 301° |
| 2026-03-23 14:04 | -24.29581 | 8.72152 | 36997 ft | 422 kts | 301° |
| 2026-03-23 14:05 | -24.26509 | 8.66667 | 37007 ft | 422 kts | 301° |
| 2026-03-23 14:05 | -24.23441 | 8.61187 | 37007 ft | 422 kts | 301° |
| 2026-03-23 14:06 | -24.20373 | 8.55706 | 37006 ft | 422 kts | 301° |
| 2026-03-23 14:06 | -24.17310 | 8.50228 | 37005 ft | 422 kts | 301° |
| 2026-03-23 14:07 | -24.14244 | 8.44755 | 36976 ft | 422 kts | 301° |
| 2026-03-23 14:07 | -24.11162 | 8.39280 | 36977 ft | 423 kts | 301° |
| 2026-03-23 14:08 | -24.08071 | 8.33792 | 36994 ft | 424 kts | 301° |
| 2026-03-23 14:08 | -24.04978 | 8.28295 | 37006 ft | 424 kts | 301° |
| 2026-03-23 14:09 | -24.01881 | 8.22793 | 37004 ft | 425 kts | 301° |
| 2026-03-23 14:09 | -23.98782 | 8.17295 | 37003 ft | 425 kts | 301° |
| 2026-03-23 14:10 | -23.95678 | 8.11802 | 37007 ft | 424 kts | 301° |
| 2026-03-23 14:10 | -23.92601 | 8.06352 | 37001 ft | 424 kts | 301° |
| 2026-03-23 14:11 | -23.89494 | 8.00860 | 36997 ft | 424 kts | 302° |
| 2026-03-23 14:11 | -23.86382 | 7.95376 | 37020 ft | 424 kts | 302° |
| 2026-03-23 14:12 | -23.83271 | 7.89893 | 36996 ft | 425 kts | 302° |
| 2026-03-23 14:12 | -23.80159 | 7.84405 | 36997 ft | 425 kts | 302° |
| 2026-03-23 14:13 | -23.77038 | 7.78916 | 36996 ft | 426 kts | 302° |
| 2026-03-23 14:13 | -23.73908 | 7.73429 | 37010 ft | 426 kts | 302° |
| 2026-03-23 14:14 | -23.70779 | 7.67940 | 37009 ft | 426 kts | 302° |
| 2026-03-23 14:14 | -23.67645 | 7.62449 | 37017 ft | 426 kts | 302° |
| 2026-03-23 14:15 | -23.64516 | 7.56958 | 37022 ft | 426 kts | 302° |
| 2026-03-23 14:15 | -23.61382 | 7.51469 | 37011 ft | 426 kts | 302° |
| 2026-03-23 14:16 | -23.58247 | 7.45986 | 37021 ft | 426 kts | 302° |
| 2026-03-23 14:16 | -23.55098 | 7.40512 | 36994 ft | 426 kts | 302° |
| 2026-03-23 14:17 | -23.51951 | 7.35028 | 37002 ft | 427 kts | 302° |
| 2026-03-23 14:17 | -23.48805 | 7.29539 | 36994 ft | 427 kts | 302° |
| 2026-03-23 14:18 | -23.45650 | 7.24051 | 36996 ft | 427 kts | 302° |
| 2026-03-23 14:18 | -23.42497 | 7.18568 | 36998 ft | 427 kts | 302° |
| 2026-03-23 14:19 | -23.39339 | 7.13080 | 36998 ft | 427 kts | 302° |
| 2026-03-23 14:19 | -23.36179 | 7.07602 | 37000 ft | 427 kts | 302° |
| 2026-03-23 14:20 | -23.33023 | 7.02122 | 36996 ft | 427 kts | 302° |
| 2026-03-23 14:20 | -23.29859 | 6.96652 | 36992 ft | 427 kts | 302° |
| 2026-03-23 14:21 | -23.26696 | 6.91186 | 36968 ft | 427 kts | 302° |
| 2026-03-23 14:21 | -23.23550 | 6.85752 | 36972 ft | 428 kts | 302° |
| 2026-03-23 14:22 | -23.20352 | 6.80238 | 36992 ft | 428 kts | 302° |
| 2026-03-23 14:22 | -23.17165 | 6.74765 | 36996 ft | 429 kts | 302° |
| 2026-03-23 14:23 | -23.13981 | 6.69289 | 36992 ft | 429 kts | 302° |
| 2026-03-23 14:23 | -23.10806 | 6.63809 | 36992 ft | 429 kts | 302° |
| 2026-03-23 14:24 | -23.07625 | 6.58331 | 36997 ft | 429 kts | 302° |
| 2026-03-23 14:24 | -23.04453 | 6.52902 | 36998 ft | 429 kts | 302° |
| 2026-03-23 14:25 | -23.01260 | 6.47436 | 36995 ft | 429 kts | 302° |
| 2026-03-23 14:25 | -22.98066 | 6.41968 | 37003 ft | 429 kts | 302° |
| 2026-03-23 14:26 | -22.94867 | 6.36501 | 36989 ft | 429 kts | 302° |
| 2026-03-23 14:27 | -22.90055 | 6.28295 | 36983 ft | 430 kts | 302° |
| 2026-03-23 14:27 | -22.86850 | 6.22815 | 36996 ft | 430 kts | 302° |
| 2026-03-23 14:28 | -22.83634 | 6.17331 | 36996 ft | 431 kts | 302° |
| 2026-03-23 14:28 | -22.80419 | 6.11852 | 36997 ft | 431 kts | 302° |
| 2026-03-23 14:29 | -22.77199 | 6.06366 | 37001 ft | 431 kts | 302° |
| 2026-03-23 14:29 | -22.73973 | 6.00894 | 37003 ft | 431 kts | 302° |
| 2026-03-23 14:30 | -22.70746 | 5.95428 | 37003 ft | 431 kts | 302° |
| 2026-03-23 14:30 | -22.67520 | 5.89958 | 37013 ft | 431 kts | 302° |
| 2026-03-23 14:31 | -22.64287 | 5.84488 | 36997 ft | 432 kts | 303° |
| 2026-03-23 14:31 | -22.61048 | 5.79010 | 36996 ft | 432 kts | 302° |
| 2026-03-23 14:32 | -22.57805 | 5.73529 | 36996 ft | 432 kts | 303° |
| 2026-03-23 14:32 | -22.54556 | 5.68048 | 37007 ft | 433 kts | 302° |
| 2026-03-23 14:33 | -22.51309 | 5.62568 | 37004 ft | 433 kts | 302° |
| 2026-03-23 14:33 | -22.48058 | 5.57093 | 37005 ft | 433 kts | 302° |
| 2026-03-23 14:34 | -22.44807 | 5.51621 | 37001 ft | 432 kts | 302° |
| 2026-03-23 14:34 | -22.41578 | 5.46188 | 37007 ft | 432 kts | 303° |
| 2026-03-23 14:35 | -22.38324 | 5.40727 | 36998 ft | 432 kts | 303° |
| 2026-03-23 14:35 | -22.35065 | 5.35266 | 36979 ft | 433 kts | 303° |
| 2026-03-23 14:36 | -22.31810 | 5.29797 | 36995 ft | 433 kts | 303° |
| 2026-03-23 14:36 | -22.28541 | 5.24332 | 36997 ft | 433 kts | 303° |
| 2026-03-23 14:37 | -22.25266 | 5.18866 | 36987 ft | 434 kts | 303° |
| 2026-03-23 14:37 | -22.21992 | 5.13397 | 36995 ft | 434 kts | 303° |
| 2026-03-23 14:38 | -22.18719 | 5.07928 | 37004 ft | 434 kts | 303° |
| 2026-03-23 14:38 | -22.15443 | 5.02465 | 36994 ft | 434 kts | 303° |
| 2026-03-23 14:39 | -22.12164 | 4.97004 | 36995 ft | 434 kts | 303° |
| 2026-03-23 14:39 | -22.08878 | 4.91546 | 36994 ft | 434 kts | 303° |
| 2026-03-23 14:40 | -22.05597 | 4.86091 | 36995 ft | 434 kts | 303° |
| 2026-03-23 14:40 | -22.02317 | 4.80635 | 37000 ft | 434 kts | 303° |
| 2026-03-23 14:41 | -21.99033 | 4.75186 | 36992 ft | 433 kts | 303° |
| 2026-03-23 14:41 | -21.96302 | 4.70661 | 36997 ft | 433 kts | 303° |
| 2026-03-23 14:42 | -21.93012 | 4.65219 | 36999 ft | 433 kts | 303° |
| 2026-03-23 14:42 | -21.89718 | 4.59780 | 36992 ft | 433 kts | 303° |
| 2026-03-23 14:43 | -21.86431 | 4.54343 | 37011 ft | 433 kts | 303° |
| 2026-03-23 14:43 | -21.83142 | 4.48910 | 37008 ft | 433 kts | 303° |
| 2026-03-23 14:44 | -21.79857 | 4.43486 | 37005 ft | 432 kts | 303° |
| 2026-03-23 14:44 | -21.76569 | 4.38069 | 37001 ft | 432 kts | 303° |
| 2026-03-23 14:45 | -21.73275 | 4.32655 | 36982 ft | 433 kts | 303° |
| 2026-03-23 14:45 | -21.69997 | 4.27271 | 36976 ft | 434 kts | 303° |
| 2026-03-23 14:46 | -21.66691 | 4.21846 | 36986 ft | 434 kts | 303° |
| 2026-03-23 14:46 | -21.63389 | 4.16413 | 37009 ft | 434 kts | 303° |
| 2026-03-23 14:47 | -21.58427 | 4.08274 | 37004 ft | 434 kts | 303° |
| 2026-03-23 14:47 | -21.55118 | 4.02854 | 36996 ft | 434 kts | 303° |
| 2026-03-23 14:48 | -21.51809 | 3.97443 | 36997 ft | 434 kts | 303° |
| 2026-03-23 14:48 | -21.48494 | 3.92027 | 36995 ft | 434 kts | 303° |
| 2026-03-23 14:49 | -21.45179 | 3.86619 | 37000 ft | 434 kts | 303° |
| 2026-03-23 14:49 | -21.41858 | 3.81215 | 36983 ft | 434 kts | 303° |
| 2026-03-23 14:50 | -21.38537 | 3.75800 | 36984 ft | 435 kts | 303° |
| 2026-03-23 14:50 | -21.35207 | 3.70382 | 36990 ft | 435 kts | 303° |
| 2026-03-23 14:51 | -21.31872 | 3.64962 | 36988 ft | 435 kts | 303° |
| 2026-03-23 14:51 | -21.28535 | 3.59539 | 37001 ft | 436 kts | 303° |
| 2026-03-23 14:52 | -21.25192 | 3.54120 | 37006 ft | 436 kts | 303° |
| 2026-03-23 14:52 | -21.21865 | 3.48742 | 36993 ft | 436 kts | 303° |
| 2026-03-23 14:53 | -21.18522 | 3.43323 | 36993 ft | 436 kts | 303° |
| 2026-03-23 14:53 | -21.15180 | 3.37901 | 37006 ft | 436 kts | 303° |
| 2026-03-23 14:54 | -21.11827 | 3.32489 | 36995 ft | 436 kts | 303° |
| 2026-03-23 14:54 | -21.08472 | 3.27074 | 36980 ft | 437 kts | 303° |
| 2026-03-23 14:55 | -21.05113 | 3.21651 | 36985 ft | 437 kts | 303° |
| 2026-03-23 14:55 | -21.01750 | 3.16225 | 36983 ft | 438 kts | 303° |
| 2026-03-23 14:56 | -20.98375 | 3.10797 | 36986 ft | 438 kts | 304° |
| 2026-03-23 14:56 | -20.94992 | 3.05376 | 36990 ft | 438 kts | 304° |
| 2026-03-23 14:57 | -20.91619 | 2.99946 | 36998 ft | 438 kts | 303° |
| 2026-03-23 14:57 | -20.88250 | 2.94523 | 37002 ft | 438 kts | 303° |
| 2026-03-23 14:58 | -20.84872 | 2.89102 | 37000 ft | 438 kts | 304° |
| 2026-03-23 14:58 | -20.81492 | 2.83691 | 37006 ft | 438 kts | 304° |
| 2026-03-23 14:59 | -20.78113 | 2.78282 | 36991 ft | 438 kts | 304° |
| 2026-03-23 14:59 | -20.74725 | 2.72868 | 36993 ft | 438 kts | 304° |
| 2026-03-23 15:00 | -20.71327 | 2.67455 | 36987 ft | 439 kts | 304° |
| 2026-03-23 15:00 | -20.67936 | 2.62035 | 36995 ft | 439 kts | 304° |
| 2026-03-23 15:01 | -20.64542 | 2.56618 | 37005 ft | 439 kts | 304° |
| 2026-03-23 15:01 | -20.61144 | 2.51204 | 36999 ft | 439 kts | 304° |
| 2026-03-23 15:02 | -20.57767 | 2.45830 | 36996 ft | 439 kts | 304° |
| 2026-03-23 15:02 | -20.54366 | 2.40421 | 36998 ft | 439 kts | 304° |
| 2026-03-23 15:03 | -20.50964 | 2.35012 | 37003 ft | 439 kts | 304° |
| 2026-03-23 15:03 | -20.47556 | 2.29610 | 37004 ft | 439 kts | 304° |
| 2026-03-23 15:04 | -20.44153 | 2.24206 | 36985 ft | 439 kts | 304° |
| 2026-03-23 15:04 | -20.40744 | 2.18794 | 36983 ft | 440 kts | 304° |
| 2026-03-23 15:05 | -20.37327 | 2.13380 | 36996 ft | 440 kts | 304° |
| 2026-03-23 15:05 | -20.33899 | 2.07968 | 36989 ft | 441 kts | 304° |
| 2026-03-23 15:06 | -20.30465 | 2.02555 | 36989 ft | 441 kts | 304° |
| 2026-03-23 15:06 | -20.27029 | 1.97143 | 36992 ft | 441 kts | 304° |
| 2026-03-23 15:07 | -20.23599 | 1.91727 | 36992 ft | 441 kts | 304° |
| 2026-03-23 15:07 | -20.20168 | 1.86313 | 37003 ft | 441 kts | 304° |
| 2026-03-23 15:08 | -20.16739 | 1.80909 | 37004 ft | 440 kts | 304° |
| 2026-03-23 15:08 | -20.13305 | 1.75510 | 37000 ft | 440 kts | 304° |
| 2026-03-23 15:09 | -20.09868 | 1.70112 | 36986 ft | 441 kts | 304° |
| 2026-03-23 15:09 | -20.06428 | 1.64706 | 36989 ft | 441 kts | 304° |
| 2026-03-23 15:10 | -20.02976 | 1.59303 | 36984 ft | 442 kts | 304° |
| 2026-03-23 15:10 | -19.99524 | 1.53893 | 36987 ft | 442 kts | 304° |
| 2026-03-23 15:11 | -19.96067 | 1.48488 | 37005 ft | 442 kts | 304° |
| 2026-03-23 15:11 | -19.92639 | 1.43122 | 36999 ft | 442 kts | 304° |
| 2026-03-23 15:12 | -19.89188 | 1.37719 | 37001 ft | 442 kts | 304° |
| 2026-03-23 15:12 | -19.85731 | 1.32326 | 37001 ft | 442 kts | 304° |
| 2026-03-23 15:13 | -19.82269 | 1.26941 | 37000 ft | 441 kts | 304° |
| 2026-03-23 15:13 | -19.78812 | 1.21552 | 36990 ft | 442 kts | 304° |
| 2026-03-23 15:14 | -19.75349 | 1.16153 | 36983 ft | 443 kts | 304° |
| 2026-03-23 15:14 | -19.71878 | 1.10751 | 36991 ft | 443 kts | 304° |
| 2026-03-23 15:15 | -19.68402 | 1.05350 | 36994 ft | 443 kts | 304° |
| 2026-03-23 15:15 | -19.64924 | 0.99948 | 36996 ft | 443 kts | 304° |
| 2026-03-23 15:16 | -19.61437 | 0.94551 | 36997 ft | 443 kts | 304° |
| 2026-03-23 15:16 | -19.57950 | 0.89158 | 36998 ft | 443 kts | 304° |
| 2026-03-23 15:17 | -19.54472 | 0.83758 | 36996 ft | 443 kts | 304° |
| 2026-03-23 15:17 | -19.50992 | 0.78359 | 36996 ft | 443 kts | 304° |
| 2026-03-23 15:18 | -19.47503 | 0.72968 | 37003 ft | 443 kts | 304° |
| 2026-03-23 15:18 | -19.44013 | 0.67584 | 36993 ft | 443 kts | 304° |
| 2026-03-23 15:19 | -19.40523 | 0.62191 | 36990 ft | 444 kts | 304° |
| 2026-03-23 15:19 | -19.37023 | 0.56803 | 36995 ft | 444 kts | 304° |
| 2026-03-23 15:20 | -19.33547 | 0.51444 | 36994 ft | 444 kts | 304° |
| 2026-03-23 15:20 | -19.30039 | 0.46055 | 36993 ft | 445 kts | 305° |
| 2026-03-23 15:21 | -19.26530 | 0.40663 | 36997 ft | 445 kts | 305° |
| 2026-03-23 15:21 | -19.23022 | 0.35273 | 37000 ft | 445 kts | 304° |
| 2026-03-23 15:22 | -19.19516 | 0.29888 | 37000 ft | 444 kts | 305° |
| 2026-03-23 15:22 | -19.16007 | 0.24506 | 37000 ft | 444 kts | 305° |
| 2026-03-23 15:23 | -19.12498 | 0.19126 | 36999 ft | 444 kts | 305° |
| 2026-03-23 15:23 | -19.08988 | 0.13747 | 36987 ft | 445 kts | 305° |
| 2026-03-23 15:24 | -19.05472 | 0.08359 | 36990 ft | 445 kts | 305° |
| 2026-03-23 15:24 | -19.01940 | 0.02974 | 36989 ft | 446 kts | 305° |
| 2026-03-23 15:25 | -18.98433 | -0.02429 | 36999 ft | 446 kts | 304° |
| 2026-03-23 15:25 | -18.95074 | -0.07943 | 36996 ft | 446 kts | 303° |
| 2026-03-23 15:26 | -18.91763 | -0.13485 | 36995 ft | 446 kts | 303° |
| 2026-03-23 15:27 | -18.86746 | -0.21764 | 36997 ft | 446 kts | 303° |
| 2026-03-23 15:27 | -18.83380 | -0.27267 | 36995 ft | 446 kts | 303° |
| 2026-03-23 15:28 | -18.80016 | -0.32770 | 36993 ft | 446 kts | 303° |
| 2026-03-23 15:28 | -18.76648 | -0.38270 | 36993 ft | 446 kts | 303° |
| 2026-03-23 15:29 | -18.71596 | -0.46518 | 36995 ft | 446 kts | 303° |
| 2026-03-23 15:29 | -18.68230 | -0.52018 | 36990 ft | 446 kts | 303° |
| 2026-03-23 15:30 | -18.64862 | -0.57512 | 36992 ft | 446 kts | 303° |
| 2026-03-23 15:30 | -18.62057 | -0.62072 | 36999 ft | 446 kts | 303° |
| 2026-03-23 15:31 | -18.58682 | -0.67559 | 36994 ft | 446 kts | 303° |
| 2026-03-23 15:31 | -18.54765 | -0.73941 | 36992 ft | 446 kts | 303° |
| 2026-03-23 15:32 | -18.51390 | -0.79425 | 37000 ft | 446 kts | 303° |
| 2026-03-23 15:32 | -18.48561 | -0.84017 | 36999 ft | 446 kts | 303° |
| 2026-03-23 15:33 | -18.45181 | -0.89492 | 36998 ft | 446 kts | 303° |
| 2026-03-23 15:33 | -18.41799 | -0.94968 | 36986 ft | 446 kts | 303° |
| 2026-03-23 15:34 | -18.38441 | -1.00413 | 36992 ft | 447 kts | 303° |
| 2026-03-23 15:34 | -18.35051 | -1.05897 | 36985 ft | 447 kts | 303° |
| 2026-03-23 15:35 | -18.31650 | -1.11375 | 36989 ft | 447 kts | 303° |
| 2026-03-23 15:35 | -18.28254 | -1.16861 | 36989 ft | 447 kts | 303° |
| 2026-03-23 15:36 | -18.24864 | -1.22347 | 36993 ft | 447 kts | 303° |
| 2026-03-23 15:36 | -18.21469 | -1.27832 | 36994 ft | 447 kts | 303° |
| 2026-03-23 15:37 | -18.18070 | -1.33312 | 36992 ft | 447 kts | 303° |
| 2026-03-23 15:37 | -18.14663 | -1.38783 | 36993 ft | 447 kts | 303° |
| 2026-03-23 15:38 | -18.11256 | -1.44253 | 36993 ft | 447 kts | 303° |
| 2026-03-23 15:38 | -18.07850 | -1.49727 | 36988 ft | 447 kts | 304° |
| 2026-03-23 15:39 | -18.04440 | -1.55205 | 36990 ft | 448 kts | 304° |
| 2026-03-23 15:39 | -18.01030 | -1.60688 | 36986 ft | 449 kts | 304° |
| 2026-03-23 15:40 | -17.97607 | -1.66170 | 36993 ft | 449 kts | 304° |
| 2026-03-23 15:40 | -17.94180 | -1.71652 | 36989 ft | 449 kts | 304° |
| 2026-03-23 15:41 | -17.90757 | -1.77136 | 36989 ft | 449 kts | 304° |
| 2026-03-23 15:41 | -17.87323 | -1.82617 | 36988 ft | 449 kts | 304° |
| 2026-03-23 15:42 | -17.83886 | -1.88094 | 36988 ft | 449 kts | 304° |
| 2026-03-23 15:42 | -17.80478 | -1.93539 | 36993 ft | 449 kts | 304° |
| 2026-03-23 15:43 | -17.77029 | -1.99052 | 36996 ft | 449 kts | 304° |
| 2026-03-23 15:43 | -17.73615 | -2.04485 | 36995 ft | 449 kts | 304° |
| 2026-03-23 15:44 | -17.70175 | -2.09955 | 36978 ft | 450 kts | 304° |
| 2026-03-23 15:44 | -17.66732 | -2.15439 | 36978 ft | 450 kts | 304° |
| 2026-03-23 15:45 | -17.63280 | -2.20925 | 36982 ft | 451 kts | 304° |
| 2026-03-23 15:45 | -17.59827 | -2.26413 | 36985 ft | 451 kts | 304° |
| 2026-03-23 15:46 | -17.56368 | -2.31899 | 36988 ft | 451 kts | 304° |
| 2026-03-23 15:46 | -17.52910 | -2.37383 | 36990 ft | 451 kts | 304° |
| 2026-03-23 15:47 | -17.49448 | -2.42859 | 36991 ft | 451 kts | 304° |
| 2026-03-23 15:47 | -17.45989 | -2.48338 | 36990 ft | 451 kts | 304° |
| 2026-03-23 15:48 | -17.42533 | -2.53818 | 36988 ft | 451 kts | 304° |
| 2026-03-23 15:48 | -17.39069 | -2.59292 | 36992 ft | 451 kts | 304° |
| 2026-03-23 15:49 | -17.35602 | -2.64767 | 36982 ft | 451 kts | 304° |
| 2026-03-23 15:49 | -17.32131 | -2.70248 | 36987 ft | 452 kts | 304° |
| 2026-03-23 15:50 | -17.28658 | -2.75731 | 36987 ft | 452 kts | 304° |
| 2026-03-23 15:50 | -17.25178 | -2.81210 | 36992 ft | 452 kts | 304° |
| 2026-03-23 15:51 | -17.21697 | -2.86685 | 36989 ft | 452 kts | 304° |
| 2026-03-23 15:51 | -17.18215 | -2.92163 | 36989 ft | 452 kts | 304° |
| 2026-03-23 15:52 | -17.14731 | -2.97635 | 36985 ft | 452 kts | 304° |
| 2026-03-23 15:52 | -17.11246 | -3.03111 | 36985 ft | 452 kts | 304° |
| 2026-03-23 15:53 | -17.07786 | -3.08545 | 36991 ft | 452 kts | 304° |
| 2026-03-23 15:53 | -17.04300 | -3.14008 | 36994 ft | 452 kts | 304° |
| 2026-03-23 15:54 | -17.00811 | -3.19470 | 36985 ft | 452 kts | 304° |
| 2026-03-23 15:54 | -16.97326 | -3.24934 | 36980 ft | 452 kts | 304° |
| 2026-03-23 15:55 | -16.93828 | -3.30404 | 36981 ft | 453 kts | 304° |
| 2026-03-23 15:55 | -16.90324 | -3.35874 | 36979 ft | 453 kts | 304° |
| 2026-03-23 15:56 | -16.86818 | -3.41337 | 36980 ft | 453 kts | 304° |
| 2026-03-23 15:56 | -16.83310 | -3.46811 | 36981 ft | 453 kts | 304° |
| 2026-03-23 15:57 | -16.79809 | -3.52282 | 36989 ft | 453 kts | 304° |
| 2026-03-23 15:57 | -16.76302 | -3.57750 | 36986 ft | 453 kts | 304° |
| 2026-03-23 15:58 | -16.72789 | -3.63209 | 36978 ft | 453 kts | 304° |
| 2026-03-23 15:58 | -16.69277 | -3.68670 | 36979 ft | 453 kts | 304° |
| 2026-03-23 15:59 | -16.65765 | -3.74129 | 36969 ft | 453 kts | 304° |
| 2026-03-23 15:59 | -16.64006 | -3.76861 | 36717 ft | 453 kts | 304° |
| 2026-03-23 15:59 | -16.62246 | -3.79589 | 36468 ft | 454 kts | 304° |
| 2026-03-23 16:00 | -16.60485 | -3.82321 | 36226 ft | 454 kts | 304° |
| 2026-03-23 16:00 | -16.58720 | -3.85056 | 35979 ft | 455 kts | 304° |
| 2026-03-23 16:00 | -16.56956 | -3.87795 | 35736 ft | 455 kts | 304° |
| 2026-03-23 16:00 | -16.55193 | -3.90537 | 35501 ft | 456 kts | 304° |
| 2026-03-23 16:01 | -16.53424 | -3.93283 | 35266 ft | 457 kts | 305° |
| 2026-03-23 16:01 | -16.51674 | -3.95996 | 35035 ft | 457 kts | 305° |
| 2026-03-23 16:01 | -16.49898 | -3.98747 | 34799 ft | 458 kts | 305° |
| 2026-03-23 16:01 | -16.48116 | -4.01504 | 34194 ft | 457 kts | 305° |
| 2026-03-23 16:02 | -16.46341 | -4.04250 | 33452 ft | 458 kts | 305° |
| 2026-03-23 16:02 | -16.44553 | -4.07010 | 32695 ft | 461 kts | 305° |
| 2026-03-23 16:02 | -16.42759 | -4.09783 | 31960 ft | 463 kts | 305° |
| 2026-03-23 16:02 | -16.40960 | -4.12568 | 31244 ft | 465 kts | 305° |
| 2026-03-23 16:03 | -16.39151 | -4.15364 | 30545 ft | 466 kts | 305° |
| 2026-03-23 16:03 | -16.37332 | -4.18171 | 29832 ft | 468 kts | 305° |
| 2026-03-23 16:03 | -16.35505 | -4.20986 | 29029 ft | 471 kts | 304° |
| 2026-03-23 16:03 | -16.33669 | -4.23822 | 28266 ft | 473 kts | 304° |
| 2026-03-23 16:04 | -16.31827 | -4.26672 | 27516 ft | 476 kts | 304° |
| 2026-03-23 16:04 | -16.29977 | -4.29535 | 26775 ft | 478 kts | 304° |
| 2026-03-23 16:04 | -16.28115 | -4.32408 | 26068 ft | 480 kts | 304° |
| 2026-03-23 16:04 | -16.26238 | -4.35300 | 25373 ft | 484 kts | 304° |
| 2026-03-23 16:05 | -16.24347 | -4.38214 | 24694 ft | 488 kts | 304° |
| 2026-03-23 16:05 | -16.22441 | -4.41147 | 24033 ft | 489 kts | 304° |
| 2026-03-23 16:05 | -16.20539 | -4.44074 | 23360 ft | 488 kts | 303° |
| 2026-03-23 16:05 | -16.18643 | -4.46988 | 22592 ft | 484 kts | 304° |
| 2026-03-23 16:06 | -16.16765 | -4.49873 | 21843 ft | 479 kts | 304° |
| 2026-03-23 16:06 | -16.14910 | -4.52725 | 21114 ft | 473 kts | 304° |
| 2026-03-23 16:06 | -16.13081 | -4.55543 | 20401 ft | 467 kts | 304° |
| 2026-03-23 16:06 | -16.11275 | -4.58325 | 19707 ft | 461 kts | 303° |
| 2026-03-23 16:07 | -16.09487 | -4.61075 | 19029 ft | 457 kts | 304° |
| 2026-03-23 16:07 | -16.07712 | -4.63796 | 18368 ft | 453 kts | 304° |
| 2026-03-23 16:07 | -16.05952 | -4.66492 | 17621 ft | 448 kts | 304° |
| 2026-03-23 16:07 | -16.04214 | -4.69159 | 16873 ft | 443 kts | 304° |
| 2026-03-23 16:08 | -16.02494 | -4.71801 | 16148 ft | 439 kts | 304° |
| 2026-03-23 16:08 | -16.00792 | -4.74411 | 15427 ft | 434 kts | 304° |
| 2026-03-23 16:08 | -15.99102 | -4.76998 | 14729 ft | 430 kts | 304° |
| 2026-03-23 16:08 | -15.97430 | -4.79553 | 14047 ft | 426 kts | 304° |
| 2026-03-23 16:09 | -15.95775 | -4.82084 | 13322 ft | 421 kts | 304° |
| 2026-03-23 16:09 | -15.94139 | -4.84587 | 12573 ft | 416 kts | 304° |
| 2026-03-23 16:09 | -15.92541 | -4.87030 | 11844 ft | 412 kts | 304° |
| 2026-03-23 16:09 | -15.90921 | -4.89508 | 11114 ft | 407 kts | 304° |
| 2026-03-23 16:10 | -15.89364 | -4.91888 | 10436 ft | 402 kts | 303° |
| 2026-03-23 16:10 | -15.88016 | -4.94407 | 10088 ft | 398 kts | 293° |
| 2026-03-23 16:10 | -15.87162 | -4.97110 | 9932 ft | 385 kts | 282° |
| 2026-03-23 16:10 | -15.86829 | -4.99715 | 9948 ft | 344 kts | 272° |
| 2026-03-23 16:11 | -15.86895 | -5.02072 | 9955 ft | 311 kts | 264° |
| 2026-03-23 16:11 | -15.87272 | -5.04208 | 9955 ft | 296 kts | 255° |
| 2026-03-23 16:11 | -15.87927 | -5.06227 | 9833 ft | 295 kts | 248° |
| 2026-03-23 16:11 | -15.88851 | -5.08112 | 9453 ft | 292 kts | 239° |
| 2026-03-23 16:12 | -15.89928 | -5.09910 | 9081 ft | 293 kts | 239° |
| 2026-03-23 16:12 | -15.90995 | -5.11710 | 8712 ft | 292 kts | 239° |
| 2026-03-23 16:12 | -15.92055 | -5.13509 | 8335 ft | 291 kts | 239° |
| 2026-03-23 16:12 | -15.93109 | -5.15305 | 7979 ft | 291 kts | 239° |
| 2026-03-23 16:13 | -15.94161 | -5.17094 | 7620 ft | 290 kts | 239° |
| 2026-03-23 16:13 | -15.95212 | -5.18880 | 7260 ft | 289 kts | 238° |
| 2026-03-23 16:13 | -15.96260 | -5.20659 | 6910 ft | 288 kts | 238° |
| 2026-03-23 16:13 | -15.97302 | -5.22426 | 6622 ft | 285 kts | 238° |
| 2026-03-23 16:14 | -15.98330 | -5.24171 | 6344 ft | 282 kts | 238° |
| 2026-03-23 16:14 | -15.99348 | -5.25901 | 6054 ft | 279 kts | 238° |
| 2026-03-23 16:14 | -16.00356 | -5.27614 | 5762 ft | 277 kts | 238° |
| 2026-03-23 16:14 | -16.01354 | -5.29313 | 5463 ft | 274 kts | 238° |
| 2026-03-23 16:15 | -16.02335 | -5.30983 | 5288 ft | 267 kts | 236° |
| 2026-03-23 16:15 | -16.03290 | -5.32610 | 5120 ft | 260 kts | 237° |
| 2026-03-23 16:15 | -16.04217 | -5.34191 | 4949 ft | 253 kts | 236° |
| 2026-03-23 16:15 | -16.05122 | -5.35732 | 4781 ft | 246 kts | 237° |
| 2026-03-23 16:16 | -16.06001 | -5.37229 | 4602 ft | 239 kts | 236° |
| 2026-03-23 16:16 | -16.06855 | -5.38683 | 4428 ft | 232 kts | 237° |
| 2026-03-23 16:16 | -16.07673 | -5.40078 | 4255 ft | 226 kts | 237° |
| 2026-03-23 16:16 | -16.08482 | -5.41454 | 4080 ft | 221 kts | 236° |
| 2026-03-23 16:17 | -16.09287 | -5.42820 | 3911 ft | 222 kts | 237° |
| 2026-03-23 16:17 | -16.10092 | -5.44188 | 3739 ft | 222 kts | 236° |
| 2026-03-23 16:17 | -16.10914 | -5.45582 | 3565 ft | 231 kts | 236° |
| 2026-03-23 16:17 | -16.11755 | -5.47009 | 3400 ft | 231 kts | 237° |
| 2026-03-23 16:18 | -16.12593 | -5.48436 | 3230 ft | 232 kts | 237° |
| 2026-03-23 16:18 | -16.13431 | -5.49861 | 3056 ft | 230 kts | 237° |
| 2026-03-23 16:18 | -16.14267 | -5.51284 | 2881 ft | 230 kts | 237° |
| 2026-03-23 16:18 | -16.15098 | -5.52702 | 2743 ft | 229 kts | 237° |
| 2026-03-23 16:19 | -16.15926 | -5.54115 | 2671 ft | 229 kts | 236° |
| 2026-03-23 16:19 | -16.16754 | -5.55527 | 2667 ft | 229 kts | 236° |
| 2026-03-23 16:19 | -16.17584 | -5.56941 | 2665 ft | 229 kts | 237° |
| 2026-03-23 16:19 | -16.18415 | -5.58356 | 2670 ft | 229 kts | 237° |
| 2026-03-23 16:20 | -16.19216 | -5.59797 | 2663 ft | 231 kts | 246° |
| 2026-03-23 16:20 | -16.19434 | -5.61431 | 2666 ft | 231 kts | 279° |
| 2026-03-23 16:20 | -16.18814 | -5.62943 | 2666 ft | 229 kts | 312° |
| 2026-03-23 16:20 | -16.17555 | -5.63897 | 2668 ft | 225 kts | 343° |
| 2026-03-23 16:21 | -16.16025 | -5.64123 | 2670 ft | 222 kts | 1° |
| 2026-03-23 16:21 | -16.14478 | -5.64158 | 2667 ft | 223 kts | 1° |
| 2026-03-23 16:21 | -16.12938 | -5.64193 | 2666 ft | 216 kts | 1° |
| 2026-03-23 16:21 | -16.11924 | -5.64218 | 2672 ft | 215 kts | 1° |
| 2026-03-23 16:22 | -16.10431 | -5.64252 | 2668 ft | 214 kts | 1° |
| 2026-03-23 16:22 | -16.08961 | -5.64287 | 2672 ft | 208 kts | 1° |
| 2026-03-23 16:22 | -16.07530 | -5.64323 | 2658 ft | 204 kts | 1° |
| 2026-03-23 16:22 | -16.06109 | -5.64356 | 2665 ft | 203 kts | 2° |
| 2026-03-23 16:23 | -16.04709 | -5.64388 | 2647 ft | 200 kts | 1° |
| 2026-03-23 16:23 | -16.03347 | -5.64420 | 2379 ft | 190 kts | 2° |
| 2026-03-23 16:23 | -16.02075 | -5.64451 | 2110 ft | 175 kts | 1° |
| 2026-03-23 16:23 | -16.00912 | -5.64479 | 1892 ft | 157 kts | 2° |
| 2026-03-23 16:24 | -15.99864 | -5.64513 | 1695 ft | 145 kts | 3° |
| 2026-03-23 16:24 | -15.98887 | -5.64546 | 1537 ft | 142 kts | 3° |
| 2026-03-23 16:24 | -15.97901 | -5.64562 | 1291 ft | 140 kts | 2° |
| 2026-03-23 16:24 | -15.96927 | -5.64574 | 1084 ft | 140 kts | 4° |
| 2026-03-23 16:25 | -15.95993 | -5.64593 | 996 ft | 120 kts | 359° |
| 2026-03-23 16:25 | -15.95417 | -5.64604 | 998 ft | 39 kts | 358° |
| 2026-03-23 16:25 | -15.95258 | -5.64607 | 998 ft | 22 kts | 0° |
| 2026-03-23 16:25 | -15.95072 | -5.64611 | 995 ft | 32 kts | 349° |
| 2026-03-23 16:26 | -15.94943 | -5.64638 | 994 ft | 9 kts | 42° |
| 2026-03-23 16:26 | -15.94973 | -5.64618 | 992 ft | 11 kts | 172° |
| 2026-03-23 16:26 | -15.95111 | -5.64610 | 996 ft | 28 kts | 178° |
| 2026-03-23 16:27 | -15.95705 | -5.64596 | 998 ft | 56 kts | 179° |
| 2026-03-23 16:27 | -15.96087 | -5.64587 | 996 ft | 38 kts | 179° |
| 2026-03-23 16:27 | -15.96213 | -5.64635 | 994 ft | 17 kts | 269° |
| 2026-03-23 16:27 | -15.96213 | -5.64722 | 994 ft | 12 kts | 269° |
| 2026-03-23 16:28 | -15.96200 | -5.64783 | 994 ft | 6 kts | 315° |
| 2026-03-23 16:28 | -15.96192 | -5.64819 | 992 ft | 0 kts | 297° |
| 2026-03-23 16:28 | -15.96186 | -5.64827 | 992 ft | 0 kts | 309° |
| 2026-03-23 16:57 | -15.96188 | -5.64825 | 994 ft | 2 kts | 309° |
| 2026-03-23 16:57 | -15.96200 | -5.64810 | 994 ft | 3 kts | 313° |
| 2026-03-23 16:58 | -15.96214 | -5.64795 | 994 ft | 3 kts | 319° |
| 2026-03-23 16:58 | -15.96230 | -5.64782 | 994 ft | 3 kts | 329° |
| 2026-03-23 16:58 | -15.96248 | -5.64773 | 994 ft | 3 kts | 350° |
| 2026-03-23 16:58 | -15.96256 | -5.64772 | 994 ft | 0 kts | 359° |
| 2026-03-23 17:01 | -15.96238 | -5.64772 | 995 ft | 6 kts | 359° |
| 2026-03-23 17:01 | -15.96208 | -5.64717 | 994 ft | 13 kts | 78° |
| 2026-03-23 17:02 | -15.96213 | -5.64603 | 994 ft | 17 kts | 97° |
| 2026-03-23 17:02 | -15.96287 | -5.64583 | 992 ft | 12 kts | 187° |
| 2026-03-23 17:02 | -15.96386 | -5.64585 | 988 ft | 17 kts | 181° |
| 2026-03-23 17:02 | -15.96521 | -5.64580 | 984 ft | 21 kts | 175° |
| 2026-03-23 17:03 | -15.96657 | -5.64549 | 981 ft | 18 kts | 189° |
| 2026-03-23 17:03 | -15.96646 | -5.64576 | 981 ft | 5 kts | 355° |
| 2026-03-23 17:03 | -15.96633 | -5.64576 | 981 ft | 0 kts | 355° |
| 2026-03-23 17:04 | -15.96628 | -5.64577 | 981 ft | 7 kts | 355° |
| 2026-03-23 17:05 | -15.96298 | -5.64587 | 992 ft | 85 kts | 359° |
| 2026-03-23 17:05 | -15.95499 | -5.64604 | 1002 ft | 142 kts | 360° |
| 2026-03-23 17:05 | -15.94418 | -5.64578 | 1350 ft | 154 kts | 4° |
| 2026-03-23 17:05 | -15.93370 | -5.64550 | 2000 ft | 153 kts | 5° |
| 2026-03-23 17:06 | -15.92278 | -5.64514 | 2507 ft | 160 kts | 7° |
| 2026-03-23 17:06 | -15.91168 | -5.64467 | 3044 ft | 157 kts | 6° |
| 2026-03-23 17:06 | -15.90027 | -5.64417 | 3400 ft | 168 kts | 5° |
| 2026-03-23 17:06 | -15.88844 | -5.64369 | 3805 ft | 176 kts | 7° |
| 2026-03-23 17:07 | -15.87713 | -5.63860 | 4023 ft | 188 kts | 53° |
| 2026-03-23 17:07 | -15.87290 | -5.62585 | 4318 ft | 198 kts | 99° |
| 2026-03-23 17:07 | -15.87880 | -5.61246 | 4661 ft | 217 kts | 132° |
| 2026-03-23 17:07 | -15.89169 | -5.60317 | 5055 ft | 240 kts | 156° |
| 2026-03-23 17:08 | -15.90827 | -5.59745 | 5469 ft | 262 kts | 163° |
| 2026-03-23 17:08 | -15.92625 | -5.59230 | 5843 ft | 274 kts | 164° |
| 2026-03-23 17:08 | -15.94499 | -5.58730 | 6180 ft | 283 kts | 166° |
| 2026-03-23 17:08 | -15.96475 | -5.58223 | 6545 ft | 303 kts | 166° |
| 2026-03-23 17:09 | -15.98539 | -5.57683 | 7098 ft | 309 kts | 161° |
| 2026-03-23 17:09 | -16.00341 | -5.56547 | 8291 ft | 296 kts | 139° |
| 2026-03-23 17:09 | -16.01980 | -5.55269 | 9169 ft | 296 kts | 154° |
| 2026-03-23 17:09 | -16.03923 | -5.54654 | 9896 ft | 298 kts | 169° |
| 2026-03-23 17:10 | -16.06014 | -5.54272 | 10242 ft | 316 kts | 171° |
| 2026-03-23 17:10 | -16.07517 | -5.54013 | 10332 ft | 332 kts | 171° |
| 2026-03-23 17:10 | -16.10666 | -5.53484 | 10493 ft | 360 kts | 172° |
| 2026-03-23 17:10 | -16.13206 | -5.53061 | 10611 ft | 379 kts | 172° |
| 2026-03-23 17:11 | -16.15868 | -5.52616 | 10757 ft | 395 kts | 171° |
| 2026-03-23 17:11 | -16.17721 | -5.52309 | 10989 ft | 401 kts | 171° |
| 2026-03-23 17:11 | -16.20494 | -5.51854 | 11489 ft | 405 kts | 172° |
| 2026-03-23 17:11 | -16.23287 | -5.51386 | 12015 ft | 409 kts | 171° |
| 2026-03-23 17:12 | -16.26111 | -5.50915 | 12569 ft | 412 kts | 172° |
| 2026-03-23 17:12 | -16.28951 | -5.50426 | 13100 ft | 415 kts | 171° |
| 2026-03-23 17:12 | -16.31811 | -5.49933 | 13670 ft | 418 kts | 171° |
| 2026-03-23 17:12 | -16.34690 | -5.49438 | 14162 ft | 421 kts | 171° |
| 2026-03-23 17:13 | -16.37590 | -5.48945 | 14624 ft | 424 kts | 171° |
| 2026-03-23 17:13 | -16.40514 | -5.48449 | 15078 ft | 427 kts | 171° |
| 2026-03-23 17:13 | -16.43456 | -5.47947 | 15517 ft | 430 kts | 171° |
| 2026-03-23 17:13 | -16.46422 | -5.47440 | 15935 ft | 433 kts | 171° |
| 2026-03-23 17:14 | -16.49407 | -5.46925 | 16351 ft | 436 kts | 171° |
| 2026-03-23 17:14 | -16.52415 | -5.46414 | 16753 ft | 439 kts | 171° |
| 2026-03-23 17:14 | -16.55440 | -5.45901 | 17152 ft | 442 kts | 171° |
| 2026-03-23 17:14 | -16.58486 | -5.45390 | 17533 ft | 445 kts | 172° |
| 2026-03-23 17:15 | -16.61552 | -5.44869 | 17901 ft | 448 kts | 171° |
| 2026-03-23 17:15 | -16.64638 | -5.44343 | 18245 ft | 451 kts | 171° |
| 2026-03-23 17:15 | -16.67705 | -5.43813 | 18524 ft | 454 kts | 171° |
| 2026-03-23 17:15 | -16.70830 | -5.43274 | 18838 ft | 456 kts | 171° |
| 2026-03-23 17:16 | -16.73968 | -5.42729 | 19156 ft | 458 kts | 171° |
| 2026-03-23 17:16 | -16.77117 | -5.42184 | 19466 ft | 460 kts | 171° |
| 2026-03-23 17:16 | -16.80281 | -5.41625 | 19758 ft | 462 kts | 171° |
| 2026-03-23 17:16 | -16.83460 | -5.41053 | 20035 ft | 465 kts | 171° |
| 2026-03-23 17:17 | -16.86655 | -5.40473 | 20332 ft | 467 kts | 171° |
| 2026-03-23 17:17 | -16.89861 | -5.39895 | 20620 ft | 469 kts | 171° |
| 2026-03-23 17:17 | -16.93077 | -5.39315 | 20905 ft | 470 kts | 171° |
| 2026-03-23 17:17 | -16.96307 | -5.38731 | 21175 ft | 472 kts | 171° |
| 2026-03-23 17:18 | -16.99546 | -5.38140 | 21431 ft | 474 kts | 171° |
| 2026-03-23 17:18 | -17.02802 | -5.37534 | 21646 ft | 476 kts | 171° |
| 2026-03-23 17:18 | -17.06072 | -5.36927 | 21886 ft | 478 kts | 171° |
| 2026-03-23 17:18 | -17.09351 | -5.36316 | 22110 ft | 479 kts | 171° |
| 2026-03-23 17:19 | -17.12639 | -5.35708 | 22331 ft | 481 kts | 171° |
| 2026-03-23 17:19 | -17.15937 | -5.35090 | 22529 ft | 482 kts | 171° |
| 2026-03-23 17:19 | -17.19247 | -5.34468 | 22718 ft | 484 kts | 171° |
| 2026-03-23 17:19 | -17.22565 | -5.33842 | 22901 ft | 485 kts | 171° |
| 2026-03-23 17:20 | -17.25889 | -5.33214 | 23082 ft | 487 kts | 171° |
| 2026-03-23 17:20 | -17.29227 | -5.32582 | 23257 ft | 488 kts | 171° |
| 2026-03-23 17:20 | -17.32569 | -5.31947 | 23424 ft | 489 kts | 171° |
| 2026-03-23 17:20 | -17.35919 | -5.31302 | 23618 ft | 490 kts | 171° |
| 2026-03-23 17:21 | -17.39270 | -5.30652 | 23824 ft | 490 kts | 171° |
| 2026-03-23 17:21 | -17.42617 | -5.30002 | 24047 ft | 489 kts | 171° |
| 2026-03-23 17:21 | -17.45919 | -5.29360 | 24273 ft | 489 kts | 171° |
| 2026-03-23 17:21 | -17.49262 | -5.28708 | 24509 ft | 489 kts | 171° |
| 2026-03-23 17:22 | -17.52602 | -5.28055 | 24748 ft | 488 kts | 171° |
| 2026-03-23 17:22 | -17.55986 | -5.27393 | 24996 ft | 488 kts | 171° |
| 2026-03-23 17:22 | -17.59323 | -5.26739 | 25259 ft | 488 kts | 171° |
| 2026-03-23 17:22 | -17.62610 | -5.26093 | 25525 ft | 487 kts | 171° |
| 2026-03-23 17:23 | -17.65937 | -5.25438 | 25800 ft | 487 kts | 171° |
| 2026-03-23 17:23 | -17.69268 | -5.24780 | 26099 ft | 487 kts | 171° |
| 2026-03-23 17:23 | -17.72591 | -5.24115 | 26393 ft | 486 kts | 171° |
| 2026-03-23 17:23 | -17.75913 | -5.23448 | 26696 ft | 486 kts | 171° |
| 2026-03-23 17:24 | -17.79230 | -5.22780 | 27008 ft | 485 kts | 171° |
| 2026-03-23 17:24 | -17.82541 | -5.22113 | 27322 ft | 485 kts | 171° |
| 2026-03-23 17:24 | -17.85851 | -5.21446 | 27651 ft | 484 kts | 171° |
| 2026-03-23 17:24 | -17.89158 | -5.20777 | 27984 ft | 484 kts | 170° |
| 2026-03-23 17:25 | -17.92460 | -5.20108 | 28331 ft | 483 kts | 170° |
| 2026-03-23 17:25 | -17.95760 | -5.19438 | 28690 ft | 483 kts | 170° |
| 2026-03-23 17:25 | -17.99056 | -5.18768 | 29051 ft | 482 kts | 170° |
| 2026-03-23 17:25 | -18.02349 | -5.18097 | 29438 ft | 482 kts | 171° |
| 2026-03-23 17:26 | -18.05637 | -5.17420 | 29816 ft | 481 kts | 170° |
| 2026-03-23 17:26 | -18.08924 | -5.16738 | 30176 ft | 481 kts | 170° |
| 2026-03-23 17:26 | -18.12206 | -5.16054 | 30505 ft | 481 kts | 170° |
| 2026-03-23 17:27 | -18.18766 | -5.14684 | 31161 ft | 481 kts | 170° |
| 2026-03-23 17:27 | -18.22046 | -5.13997 | 31495 ft | 480 kts | 170° |
| 2026-03-23 17:27 | -18.25324 | -5.13308 | 31836 ft | 480 kts | 170° |
| 2026-03-23 17:27 | -18.28599 | -5.12618 | 32188 ft | 480 kts | 170° |
| 2026-03-23 17:28 | -18.31874 | -5.11925 | 32542 ft | 480 kts | 170° |
| 2026-03-23 17:28 | -18.35149 | -5.11232 | 32901 ft | 480 kts | 170° |
| 2026-03-23 17:28 | -18.38421 | -5.10536 | 33273 ft | 480 kts | 170° |
| 2026-03-23 17:28 | -18.41690 | -5.09828 | 33635 ft | 480 kts | 170° |
| 2026-03-23 17:29 | -18.44958 | -5.09116 | 33998 ft | 480 kts | 170° |
| 2026-03-23 17:29 | -18.48224 | -5.08402 | 34329 ft | 479 kts | 170° |
| 2026-03-23 17:29 | -18.51486 | -5.07685 | 34678 ft | 478 kts | 170° |
| 2026-03-23 17:29 | -18.54743 | -5.06964 | 35017 ft | 477 kts | 170° |
| 2026-03-23 17:30 | -18.57987 | -5.06240 | 35349 ft | 476 kts | 170° |
| 2026-03-23 17:30 | -18.61220 | -5.05515 | 35677 ft | 475 kts | 170° |
| 2026-03-23 17:30 | -18.64448 | -5.04785 | 36001 ft | 474 kts | 170° |
| 2026-03-23 17:30 | -18.67626 | -5.04062 | 36309 ft | 473 kts | 170° |
| 2026-03-23 17:31 | -18.70835 | -5.03327 | 36613 ft | 472 kts | 170° |
| 2026-03-23 17:31 | -18.74037 | -5.02590 | 36913 ft | 471 kts | 170° |
| 2026-03-23 17:31 | -18.77278 | -5.01838 | 37210 ft | 470 kts | 170° |
| 2026-03-23 17:31 | -18.80466 | -5.01095 | 37495 ft | 469 kts | 170° |
| 2026-03-23 17:32 | -18.83648 | -5.00349 | 37777 ft | 468 kts | 170° |
| 2026-03-23 17:32 | -18.86821 | -4.99603 | 38042 ft | 467 kts | 170° |
| 2026-03-23 17:32 | -18.89988 | -4.98854 | 38306 ft | 466 kts | 170° |
| 2026-03-23 17:32 | -18.93136 | -4.98023 | 38563 ft | 467 kts | 162° |
| 2026-03-23 17:33 | -18.96021 | -4.96487 | 38766 ft | 470 kts | 145° |
| 2026-03-23 17:33 | -18.98463 | -4.94164 | 38931 ft | 471 kts | 129° |
| 2026-03-23 17:33 | -19.02207 | -4.88478 | 39004 ft | 471 kts | 124° |
| 2026-03-23 17:34 | -19.05841 | -4.82725 | 39014 ft | 471 kts | 124° |
| 2026-03-23 17:34 | -19.09461 | -4.76996 | 39009 ft | 472 kts | 124° |
| 2026-03-23 17:35 | -19.13119 | -4.71226 | 39001 ft | 472 kts | 124° |
| 2026-03-23 17:35 | -19.16778 | -4.65456 | 39002 ft | 472 kts | 124° |
| 2026-03-23 17:36 | -19.20434 | -4.59677 | 39010 ft | 473 kts | 124° |
| 2026-03-23 17:36 | -19.24088 | -4.53897 | 39013 ft | 472 kts | 124° |
| 2026-03-23 17:37 | -19.27738 | -4.48115 | 39021 ft | 472 kts | 123° |
| 2026-03-23 17:37 | -19.31379 | -4.42333 | 39023 ft | 472 kts | 123° |
| 2026-03-23 17:38 | -19.35022 | -4.36552 | 39027 ft | 472 kts | 123° |
| 2026-03-23 17:38 | -19.38667 | -4.30769 | 39028 ft | 472 kts | 124° |
| 2026-03-23 17:39 | -19.42313 | -4.24981 | 39032 ft | 472 kts | 123° |